KLWD

Lamoni Municipal Airport

Lamoni, Iowa, USA
METAR KLWD 141253Z AUTO 15005KT 8SM CLR 21/19 A2995 RMK AO2 SLP132 T02110194
Observed Flight Rules
Aug-14 @ 12:53 UTC (49 minutes ago) Visual Flight Rules
Wind Visibility Clouds
150° at 5 knots 8 miles
  • Clear skies
Temperatures Readings
Current 21°C / 70°F
Dewpoint 19°C / 66°F
Humidity 88%
Altimeter 29.95" Hg
Pressure 1013.2 hPa
Elevation 346
METAR KLWD 141253Z AUTO 15005KT 8SM CLR 21/19 A2995 RMK AO2 SLP132 T02110194
Observed Flight Rules
Aug-14 @ 12:53 UTC
(49 minutes ago)
VFR
Wind Visibility
150° at 5 knots 8 miles
Clouds
  • Clear skies
Temperature Dewpoint
21°C / 70°F 19°C / 66°F
Humidity Altimeter Pressure
88% 29.95" Hg 1013.2 hPa